createdAt,value
2018-03-24T00:00:30.094Z,27
2018-03-24T00:01:20.699Z,27
2018-03-24T00:02:10.704Z,27
2018-03-24T00:03:00.476Z,27.1
2018-03-24T00:03:51.509Z,27.1
2018-03-24T00:04:41.634Z,27.1
2018-03-24T00:05:31.651Z,27.2
2018-03-24T00:06:21.661Z,27.2
2018-03-24T00:07:11.924Z,27.2
2018-03-24T00:08:02.324Z,27.3
2018-03-24T00:08:52.073Z,27.3
2018-03-24T00:09:42.086Z,27.3
2018-03-24T00:10:32.165Z,27.3
2018-03-24T00:11:22.514Z,27.4
2018-03-24T00:12:12.301Z,27.4
2018-03-24T00:13:02.092Z,27.4
2018-03-24T00:13:52.398Z,27.4
2018-03-24T00:14:43.070Z,27.4
2018-03-24T00:15:31.885Z,27.5
2018-03-24T00:16:22.580Z,27.5
2018-03-24T00:17:11.799Z,27.5
2018-03-24T00:18:01.478Z,27.6
2018-03-24T00:18:51.206Z,27.6
2018-03-24T00:19:41.583Z,27.6
2018-03-24T00:20:31.748Z,27.7
2018-03-24T00:21:21.962Z,27.7
2018-03-24T00:22:12.139Z,27.7
2018-03-24T00:23:02.544Z,27.8
2018-03-24T00:23:52.979Z,27.8
2018-03-24T00:27:13.373Z,27.9
2018-03-24T00:28:02.679Z,27.9
2018-03-24T00:28:53.012Z,27.9
2018-03-24T00:29:42.908Z,27.9
2018-03-24T00:30:32.666Z,27.9
2018-03-24T00:31:22.120Z,27.9
2018-03-24T00:32:12.390Z,28
2018-03-24T00:33:02.487Z,28
2018-03-24T00:33:52.181Z,28.1
2018-03-24T00:34:43.562Z,28.1
2018-03-24T00:35:32.345Z,28.1
2018-03-24T00:36:23.217Z,28.2
2018-03-24T00:37:12.832Z,28.2
2018-03-24T00:38:03.325Z,28.2
2018-03-24T00:38:53.323Z,28.3
2018-03-24T00:39:43.440Z,28.3
2018-03-24T00:40:32.722Z,28.3
2018-03-24T00:41:23.477Z,28.3
2018-03-24T00:42:13.841Z,28.3
2018-03-24T00:43:03.785Z,28.4
2018-03-24T00:43:53.180Z,28.4
2018-03-24T00:44:42.710Z,28.4
2018-03-24T00:45:33.709Z,28.4
2018-03-24T00:46:24.237Z,28.4
2018-03-24T00:47:13.644Z,28.4
2018-03-24T00:48:04.049Z,28.4
2018-03-24T00:48:54.055Z,28.4
2018-03-24T00:49:43.544Z,28.5
2018-03-24T00:50:34.153Z,28.5
2018-03-24T00:51:23.221Z,28.5
2018-03-24T00:52:13.152Z,28.6
2018-03-24T00:53:04.555Z,28.6
2018-03-24T00:53:54.879Z,28.6
2018-03-24T00:54:44.618Z,28.6
2018-03-24T00:55:34.222Z,28.6
2018-03-24T00:56:24.391Z,28.6
2018-03-24T00:57:13.941Z,28.6
2018-03-24T00:58:03.881Z,28.6
2018-03-24T00:58:55.374Z,28.7
2018-03-24T00:59:45.311Z,28.7
2018-03-24T01:00:34.194Z,28.7
2018-03-24T01:01:23.951Z,28.8
2018-03-24T01:02:13.169Z,28.8
2018-03-24T01:03:05.864Z,28.8
2018-03-24T01:03:55.348Z,28.8
2018-03-24T01:04:45.205Z,28.8
2018-03-24T01:05:34.648Z,28.8
2018-03-24T01:06:25.490Z,28.8
2018-03-24T01:07:14.883Z,28.8
2018-03-24T01:08:04.080Z,28.9
2018-03-24T01:08:55.785Z,28.9
2018-03-24T01:09:45.355Z,28.9
2018-03-24T01:10:34.572Z,28.9
2018-03-24T01:11:24.583Z,28.9
2018-03-24T01:12:14.600Z,28.9
2018-03-24T01:13:05.517Z,28.9
2018-03-24T01:13:55.193Z,28.9
2018-03-24T01:14:44.919Z,29
2018-03-24T01:15:35.602Z,29
2018-03-24T01:16:25.657Z,29
2018-03-24T01:17:15.267Z,29
2018-03-24T01:18:06.315Z,29.1
2018-03-24T01:18:55.409Z,29.1
2018-03-24T01:19:45.920Z,29.1
2018-03-24T01:20:37.219Z,29.1
2018-03-24T01:21:27.352Z,29.1
2018-03-24T01:22:17.344Z,29.1
2018-03-24T01:23:06.538Z,29.2
2018-03-24T01:23:57.469Z,29.2
2018-03-24T01:24:47.245Z,29.2
2018-03-24T01:25:37.289Z,29.2
2018-03-24T01:26:27.654Z,29.2
2018-03-24T01:27:17.213Z,29.3
2018-03-24T01:28:07.739Z,29.3
2018-03-24T01:28:57.831Z,29.3
2018-03-24T01:29:47.310Z,29.3
2018-03-24T01:30:37.336Z,29.3
2018-03-24T01:31:27.999Z,29.3
2018-03-24T01:32:18.106Z,29.3
2018-03-24T01:33:07.830Z,29.3
2018-03-24T01:33:57.874Z,29.4
2018-03-24T01:34:48.512Z,29.3
2018-03-24T01:35:38.309Z,29.4
2018-03-24T01:36:28.113Z,29.4
2018-03-24T01:37:18.089Z,29.4
2018-03-24T01:38:08.137Z,29.4
2018-03-24T01:38:57.381Z,29.5
2018-03-24T01:39:47.627Z,29.4
2018-03-24T01:40:37.583Z,29.5
2018-03-24T01:41:26.858Z,29.6
2018-03-24T01:42:17.919Z,29.6
2018-03-24T01:43:06.836Z,29.6
2018-03-24T01:43:57.516Z,29.6
2018-03-24T01:44:47.871Z,29.6
2018-03-24T01:45:38.540Z,29.6
2018-03-24T01:46:28.225Z,29.6
2018-03-24T01:47:18.536Z,29.7
2018-03-24T01:48:08.143Z,29.6
2018-03-24T01:48:58.327Z,29.7
2018-03-24T01:49:48.236Z,29.7
2018-03-24T01:50:37.630Z,29.7
2018-03-24T01:51:28.051Z,29.7
2018-03-24T01:52:17.898Z,29.7
2018-03-24T01:53:08.568Z,29.7
2018-03-24T01:53:57.795Z,29.7
2018-03-24T01:54:47.291Z,29.8
2018-03-24T01:55:38.243Z,29.8
2018-03-24T01:56:27.958Z,29.8
2018-03-24T01:57:17.265Z,29.8
2018-03-24T01:58:08.197Z,29.8
2018-03-24T01:58:57.865Z,29.8
2018-03-24T01:59:48.600Z,29.8
2018-03-24T02:00:37.983Z,29.8
2018-03-24T02:01:28.358Z,29.8
2018-03-24T02:02:19.268Z,29.8
2018-03-24T02:03:09.026Z,29.8
2018-03-24T02:03:58.553Z,29.8
2018-03-24T02:04:48.860Z,29.8
2018-03-24T02:05:39.105Z,29.8
2018-03-24T02:06:28.893Z,29.8
2018-03-24T02:07:19.150Z,29.8
2018-03-24T02:08:09.543Z,29.8
2018-03-24T02:08:59.032Z,29.8
2018-03-24T02:09:48.998Z,29.8
2018-03-24T02:10:39.569Z,29.8
2018-03-24T02:11:29.460Z,29.9
2018-03-24T02:12:19.344Z,29.9
2018-03-24T02:13:08.749Z,29.9
2018-03-24T02:13:59.780Z,29.9
2018-03-24T02:14:48.771Z,29.9
2018-03-24T02:15:39.495Z,29.9
2018-03-24T02:16:30.267Z,29.9
2018-03-24T02:17:19.699Z,29.9
2018-03-24T02:18:10.079Z,29.9
2018-03-24T02:18:59.424Z,29.9
2018-03-24T02:19:49.434Z,29.9
2018-03-24T02:20:39.859Z,29.9
2018-03-24T02:21:30.069Z,29.9
2018-03-24T02:22:19.281Z,29.9
2018-03-24T02:23:11.259Z,29.9
2018-03-24T02:24:01.284Z,30
2018-03-24T02:24:51.384Z,30
2018-03-24T02:25:41.114Z,30
2018-03-24T02:26:32.059Z,30
2018-03-24T02:27:22.062Z,30
2018-03-24T02:28:11.571Z,30
2018-03-24T02:29:01.336Z,30
2018-03-24T02:29:51.401Z,30
2018-03-24T02:30:40.652Z,30
2018-03-24T02:31:30.771Z,30.1
2018-03-24T02:32:20.733Z,30
2018-03-24T02:33:10.908Z,30.1
2018-03-24T02:33:59.975Z,30.1
2018-03-24T02:34:51.513Z,30.1
2018-03-24T02:35:41.450Z,30.1
2018-03-24T02:36:30.645Z,30.1
2018-03-24T02:37:21.093Z,30.1
2018-03-24T02:38:11.010Z,30.1
2018-03-24T02:39:01.943Z,30.1
2018-03-24T02:39:50.185Z,30.1
2018-03-24T02:40:41.442Z,30.1
2018-03-24T02:41:31.372Z,30.2
2018-03-24T02:42:22.088Z,30.1
2018-03-24T02:43:11.494Z,30.1
2018-03-24T02:44:01.744Z,30.2
2018-03-24T02:44:51.433Z,30.1
2018-03-24T02:45:42.316Z,30.2
2018-03-24T02:46:31.582Z,30.2
2018-03-24T02:47:21.896Z,30.2
2018-03-24T02:48:12.074Z,30.2
2018-03-24T02:49:01.790Z,30.3
2018-03-24T02:49:51.034Z,30.2
2018-03-24T02:50:42.680Z,30.3
2018-03-24T02:51:32.253Z,30.3
2018-03-24T02:52:22.200Z,30.3
2018-03-24T02:53:12.364Z,30.3
2018-03-24T02:54:02.587Z,30.3
2018-03-24T02:54:52.400Z,30.3
2018-03-24T02:55:42.157Z,30.3
2018-03-24T02:56:33.295Z,30.3
2018-03-24T02:57:21.748Z,30.3
2018-03-24T02:58:12.837Z,30.3
2018-03-24T02:59:03.309Z,30.3
2018-03-24T02:59:53.127Z,30.3
2018-03-24T03:00:43.546Z,30.3
2018-03-24T03:01:32.046Z,30.3
2018-03-24T03:02:23.427Z,30.3
2018-03-24T03:03:13.250Z,30.3
2018-03-24T03:04:03.630Z,30.3
2018-03-24T03:04:53.603Z,30.4
2018-03-24T03:05:44.262Z,30.4
2018-03-24T03:06:34.288Z,30.4
2018-03-24T03:07:24.102Z,30.4
2018-03-24T03:08:14.111Z,30.4
2018-03-24T03:09:04.505Z,30.4
2018-03-24T03:09:54.539Z,30.4
2018-03-24T03:10:44.548Z,30.4
2018-03-24T03:11:34.067Z,30.4
2018-03-24T03:12:24.402Z,30.4
2018-03-24T03:13:14.453Z,30.4
2018-03-24T03:14:04.211Z,30.4
2018-03-24T03:14:54.863Z,30.4
2018-03-24T03:15:44.085Z,30.4
2018-03-24T03:16:34.916Z,30.4
2018-03-24T03:17:24.761Z,30.5
2018-03-24T03:18:15.059Z,30.5
2018-03-24T03:19:04.528Z,30.5
2018-03-24T03:19:53.065Z,30.5
2018-03-24T03:20:44.211Z,30.4
2018-03-24T03:21:33.872Z,30.5
2018-03-24T03:22:23.352Z,30.6
2018-03-24T03:23:14.118Z,30.5
2018-03-24T03:24:05.120Z,30.6
2018-03-24T03:24:53.998Z,30.6
2018-03-24T03:25:45.103Z,30.6
2018-03-24T03:26:34.478Z,30.6
2018-03-24T03:27:24.085Z,30.6
2018-03-24T03:28:14.660Z,30.6
2018-03-24T03:29:03.818Z,30.6
2018-03-24T03:29:54.850Z,30.6
2018-03-24T03:30:44.368Z,30.6
2018-03-24T03:31:35.660Z,30.6
2018-03-24T03:32:24.433Z,30.6
2018-03-24T03:33:14.728Z,30.6
2018-03-24T03:34:05.138Z,30.7
2018-03-24T03:34:54.607Z,30.7
2018-03-24T03:35:44.144Z,30.7
2018-03-24T03:36:35.509Z,30.7
2018-03-24T03:37:25.353Z,30.7
2018-03-24T03:38:15.221Z,30.7
2018-03-24T03:39:05.082Z,30.8
2018-03-24T03:39:55.236Z,30.8
2018-03-24T03:40:45.893Z,30.8
2018-03-24T03:41:36.392Z,30.8
2018-03-24T03:42:25.554Z,30.8
2018-03-24T03:43:14.199Z,30.8
2018-03-24T03:44:04.437Z,30.8
2018-03-24T03:44:56.349Z,30.8
2018-03-24T03:45:46.005Z,30.8
2018-03-24T03:46:35.995Z,30.8
2018-03-24T03:47:27.087Z,30.8
2018-03-24T03:48:16.254Z,30.8
2018-03-24T03:49:05.794Z,30.8
2018-03-24T03:49:56.629Z,30.8
2018-03-24T03:50:46.475Z,30.8
2018-03-24T03:51:35.697Z,30.8
2018-03-24T03:52:25.889Z,30.8
2018-03-24T03:53:17.039Z,30.8
2018-03-24T03:54:06.600Z,30.8
2018-03-24T03:54:56.194Z,30.8
2018-03-24T03:55:45.551Z,30.8
2018-03-24T03:56:36.509Z,30.8
2018-03-24T03:57:26.948Z,30.8
2018-03-24T03:58:17.008Z,30.9
2018-03-24T03:59:06.752Z,30.9
2018-03-24T03:59:56.637Z,30.9
2018-03-24T04:00:46.470Z,30.9
2018-03-24T04:01:37.729Z,30.9
2018-03-24T04:02:26.308Z,30.9
2018-03-24T04:03:16.860Z,30.9
2018-03-24T04:04:07.175Z,30.9
2018-03-24T04:04:56.885Z,30.9
2018-03-24T04:05:46.225Z,30.9
2018-03-24T04:06:37.708Z,30.9
2018-03-24T04:07:26.817Z,30.9
2018-03-24T04:08:17.125Z,30.9
2018-03-24T04:09:07.948Z,30.9
2018-03-24T04:09:57.275Z,30.9
2018-03-24T04:10:48.221Z,31
2018-03-24T04:11:37.704Z,30.9
2018-03-24T04:12:27.785Z,31
2018-03-24T04:13:18.178Z,31
2018-03-24T04:14:06.883Z,31
2018-03-24T04:14:57.041Z,31
2018-03-24T04:15:47.892Z,31.1
2018-03-24T04:16:37.874Z,31
2018-03-24T04:17:28.083Z,31.1
2018-03-24T04:18:17.480Z,31.1
2018-03-24T04:19:08.507Z,31.1
2018-03-24T04:19:57.587Z,31.1
2018-03-24T04:20:47.446Z,31.1
2018-03-24T04:21:38.566Z,31.1
2018-03-24T04:22:28.534Z,31.1
2018-03-24T04:23:19.267Z,31.1
2018-03-24T04:24:07.682Z,31.1
2018-03-24T04:24:59.046Z,31.1
2018-03-24T04:25:48.510Z,31.1
2018-03-24T04:26:38.892Z,31.1
2018-03-24T04:27:28.204Z,31.1
2018-03-24T04:28:18.640Z,31.1
2018-03-24T04:29:09.391Z,31.1
2018-03-24T04:29:59.059Z,31.1
2018-03-24T04:30:48.489Z,31.1
2018-03-24T04:31:39.494Z,31.1
2018-03-24T04:32:29.266Z,31.1
2018-03-24T04:33:19.695Z,31.1
2018-03-24T04:34:09.447Z,31.2
2018-03-24T04:34:59.104Z,31.2
2018-03-24T04:35:48.627Z,31.2
2018-03-24T04:36:39.220Z,31.2
2018-03-24T04:37:29.267Z,31.2
2018-03-24T04:38:20.468Z,31.1
2018-03-24T04:39:10.505Z,31.2
2018-03-24T04:40:00.573Z,31.2
2018-03-24T04:40:51.187Z,31.2
2018-03-24T04:41:41.236Z,31.2
2018-03-24T04:42:30.748Z,31.3
2018-03-24T04:43:21.403Z,31.2
2018-03-24T04:44:11.420Z,31.2
2018-03-24T04:45:01.496Z,31.2
2018-03-24T04:45:50.940Z,31.2
2018-03-24T04:46:41.555Z,31.3
2018-03-24T04:47:31.131Z,31.2
2018-03-24T04:48:21.735Z,31.3
2018-03-24T04:49:11.223Z,31.3
2018-03-24T04:50:01.237Z,31.2
2018-03-24T04:50:51.855Z,31.3
2018-03-24T04:51:41.988Z,31.3
2018-03-24T04:52:31.707Z,31.2
2018-03-24T04:53:22.067Z,31.3
2018-03-24T04:54:11.822Z,31.3
2018-03-24T04:55:01.873Z,31.2
2018-03-24T04:55:51.706Z,31.3
2018-03-24T04:56:41.120Z,31.3
2018-03-24T04:57:32.033Z,31.3
2018-03-24T04:58:21.819Z,31.3
2018-03-24T04:59:11.620Z,31.2
2018-03-24T05:00:02.228Z,31.3
2018-03-24T05:00:51.857Z,31.3
2018-03-24T05:01:41.529Z,31.3
2018-03-24T05:02:32.122Z,31.3
2018-03-24T05:03:22.469Z,31.3
2018-03-24T05:04:11.695Z,31.3
2018-03-24T05:05:02.594Z,31.3
2018-03-24T05:05:52.097Z,31.3
2018-03-24T05:06:42.183Z,31.3
2018-03-24T05:07:32.760Z,31.3
2018-03-24T05:08:22.237Z,31.3
2018-03-24T05:09:12.841Z,31.3
2018-03-24T05:10:02.642Z,31.3
2018-03-24T05:10:51.854Z,31.4
2018-03-24T05:11:43.269Z,31.4
2018-03-24T05:12:32.322Z,31.4
2018-03-24T05:13:22.358Z,31.3
2018-03-24T05:14:13.177Z,31.3
2018-03-24T05:15:02.466Z,31.4
2018-03-24T05:15:51.966Z,31.4
2018-03-24T05:16:42.524Z,31.4
2018-03-24T05:17:32.722Z,31.4
2018-03-24T05:18:22.702Z,31.4
2018-03-24T05:19:12.484Z,31.4
2018-03-24T05:20:02.782Z,31.4
2018-03-24T05:20:53.179Z,31.4
2018-03-24T05:21:43.243Z,31.4
2018-03-24T05:22:33.267Z,31.4
2018-03-24T05:23:22.747Z,31.4
2018-03-24T05:24:13.394Z,31.4
2018-03-24T05:25:03.182Z,31.4
2018-03-24T05:25:53.676Z,31.4
2018-03-24T05:26:43.773Z,31.4
2018-03-24T05:27:33.037Z,31.4
2018-03-24T05:28:23.683Z,31.4
2018-03-24T05:29:12.946Z,31.4
2018-03-24T05:30:03.816Z,31.4
2018-03-24T05:30:54.323Z,31.4
2018-03-24T05:31:43.849Z,31.4
2018-03-24T05:32:33.865Z,31.4
2018-03-24T05:33:24.233Z,31.4
2018-03-24T05:34:13.985Z,31.4
2018-03-24T05:35:04.068Z,31.4
2018-03-24T05:35:54.418Z,31.4
2018-03-24T05:36:44.170Z,31.4
2018-03-24T05:37:34.810Z,31.4
2018-03-24T05:38:24.067Z,31.4
2018-03-24T05:39:15.021Z,31.4
2018-03-24T05:40:04.683Z,31.4
2018-03-24T05:40:54.407Z,31.4
2018-03-24T05:41:44.777Z,31.4
2018-03-24T05:42:34.100Z,31.5
2018-03-24T05:43:24.343Z,31.5
2018-03-24T05:44:15.008Z,31.5
2018-03-24T05:45:05.353Z,31.5
2018-03-24T05:45:54.466Z,31.5
2018-03-24T05:46:44.572Z,31.5
2018-03-24T05:47:35.168Z,31.5
2018-03-24T05:48:25.259Z,31.5
2018-03-24T05:49:15.320Z,31.5
2018-03-24T05:50:05.082Z,31.5
2018-03-24T05:50:55.409Z,31.5
2018-03-24T05:51:45.194Z,31.5
2018-03-24T05:52:34.999Z,31.5
2018-03-24T05:53:25.309Z,31.5
2018-03-24T05:54:15.632Z,31.5
2018-03-24T05:55:06.005Z,31.4
2018-03-24T05:55:55.029Z,31.5
2018-03-24T05:56:45.143Z,31.5
2018-03-24T05:57:36.147Z,31.5
2018-03-24T05:58:25.894Z,31.5
2018-03-24T05:59:16.506Z,31.5
2018-03-24T06:00:06.358Z,31.5
2018-03-24T06:00:56.362Z,31.5
2018-03-24T06:01:46.698Z,31.5
2018-03-24T06:02:36.801Z,31.5
2018-03-24T06:03:26.637Z,31.5
2018-03-24T06:04:16.610Z,31.5
2018-03-24T06:05:06.658Z,31.5
2018-03-24T06:05:56.117Z,31.5
2018-03-24T06:06:47.043Z,31.5
2018-03-24T06:07:36.517Z,31.5
2018-03-24T06:08:26.876Z,31.5
2018-03-24T06:09:16.906Z,31.4
2018-03-24T06:10:06.743Z,31.5
2018-03-24T06:10:56.746Z,31.4
2018-03-24T06:11:47.148Z,31.5
2018-03-24T06:12:37.191Z,31.4
2018-03-24T06:13:27.216Z,31.4
2018-03-24T06:14:17.293Z,31.4
2018-03-24T06:15:07.336Z,31.4
2018-03-24T06:15:57.420Z,31.4
2018-03-24T06:16:46.833Z,31.4
2018-03-24T06:17:37.486Z,31.4
2018-03-24T06:18:27.850Z,31.3
2018-03-24T06:19:17.905Z,31.3
2018-03-24T06:20:07.367Z,31.3
2018-03-24T06:20:57.982Z,31.2
2018-03-24T06:21:47.897Z,31.1
2018-03-24T06:22:37.277Z,31.1
2018-03-24T06:23:28.153Z,31.1
2018-03-24T06:24:17.696Z,31.1
2018-03-24T06:25:08.323Z,31
2018-03-24T06:25:58.151Z,31
2018-03-24T06:26:48.138Z,30.9
2018-03-24T06:27:38.552Z,30.9
2018-03-24T06:28:28.531Z,30.9
2018-03-24T06:29:18.605Z,30.8
2018-03-24T06:30:08.326Z,30.8
2018-03-24T06:30:58.679Z,30.8
2018-03-24T06:31:48.465Z,30.8
2018-03-24T06:32:38.240Z,30.6
2018-03-24T06:33:28.868Z,30.6
2018-03-24T06:34:18.163Z,30.6
2018-03-24T06:35:08.446Z,30.5
2018-03-24T06:35:58.509Z,30.4
2018-03-24T06:36:48.818Z,30.4
2018-03-24T06:37:39.104Z,30.4
2018-03-24T06:38:29.006Z,30.3
2018-03-24T06:39:18.425Z,30.3
2018-03-24T06:40:09.046Z,30.2
2018-03-24T06:40:59.299Z,30.1
2018-03-24T06:41:49.132Z,30.1
2018-03-24T06:42:39.019Z,30.1
2018-03-24T06:43:29.255Z,30
2018-03-24T06:44:19.153Z,29.9
2018-03-24T06:45:09.390Z,29.9
2018-03-24T06:45:59.730Z,29.9
2018-03-24T06:46:48.759Z,29.9
2018-03-24T06:47:39.582Z,29.8
2018-03-24T06:48:29.623Z,29.8
2018-03-24T06:49:19.735Z,29.7
2018-03-24T06:50:09.997Z,29.7
2018-03-24T06:50:59.563Z,29.6
2018-03-24T06:51:49.258Z,29.6
2018-03-24T06:52:39.610Z,29.6
2018-03-24T06:53:29.935Z,29.5
2018-03-24T06:54:19.567Z,29.5
2018-03-24T06:55:09.806Z,29.4
2018-03-24T06:56:00.120Z,29.4
2018-03-24T06:56:50.180Z,29.3
2018-03-24T06:57:39.659Z,29.3
2018-03-24T06:58:30.260Z,29.3
2018-03-24T06:59:20.415Z,29.3
2018-03-24T07:00:10.693Z,29.2
2018-03-24T07:01:00.282Z,29.2
2018-03-24T07:01:50.282Z,29.1
2018-03-24T07:02:40.529Z,29.1
2018-03-24T07:03:30.345Z,29.1
2018-03-24T07:04:20.736Z,29.1
2018-03-24T07:05:10.712Z,29.1
2018-03-24T07:06:00.789Z,29
2018-03-24T07:06:50.867Z,29
2018-03-24T07:07:40.953Z,28.9
2018-03-24T07:08:31.229Z,28.9
2018-03-24T07:09:20.751Z,28.9
2018-03-24T07:10:11.371Z,28.9
2018-03-24T07:11:01.384Z,28.8
2018-03-24T07:11:50.896Z,28.8
2018-03-24T07:12:41.006Z,28.8
2018-03-24T07:13:31.353Z,28.8
2018-03-24T07:14:20.784Z,28.7
2018-03-24T07:15:11.219Z,28.6
2018-03-24T07:16:01.486Z,28.6
2018-03-24T07:16:51.259Z,28.6
2018-03-24T07:17:41.607Z,28.6
2018-03-24T07:18:31.620Z,28.6
2018-03-24T07:19:21.692Z,28.5
2018-03-24T07:20:11.761Z,28.5
2018-03-24T07:21:02.053Z,28.4
2018-03-24T07:21:51.853Z,28.4
2018-03-24T07:22:41.646Z,28.4
2018-03-24T07:23:32.230Z,28.4
2018-03-24T07:24:22.000Z,28.3
2018-03-24T07:25:12.388Z,28.3
2018-03-24T07:26:02.486Z,28.3
2018-03-24T07:26:52.240Z,28.3
2018-03-24T07:27:42.633Z,28.2
2018-03-24T07:28:32.658Z,28.2
2018-03-24T07:29:22.129Z,28.2
2018-03-24T07:30:12.478Z,28.2
2018-03-24T07:31:02.017Z,28.1
2018-03-24T07:31:52.560Z,28.1
2018-03-24T07:32:42.921Z,28.1
2018-03-24T07:33:32.668Z,28.1
2018-03-24T07:34:22.468Z,28.1
2018-03-24T07:35:12.530Z,28
2018-03-24T07:36:03.120Z,28
2018-03-24T07:36:52.483Z,27.9
2018-03-24T07:37:41.952Z,27.9
2018-03-24T07:38:32.555Z,27.9
2018-03-24T07:39:23.424Z,27.9
2018-03-24T07:40:13.379Z,27.9
2018-03-24T07:42:42.985Z,27.8
2018-03-24T07:43:33.340Z,27.8
2018-03-24T07:44:23.115Z,27.8
2018-03-24T07:45:13.536Z,27.7
2018-03-24T07:46:03.529Z,27.6
2018-03-24T07:46:53.674Z,27.6
2018-03-24T07:47:43.627Z,27.5
2018-03-24T07:48:33.181Z,27.4
2018-03-24T07:49:23.814Z,27.3
2018-03-24T07:50:13.561Z,27.2
2018-03-24T07:51:04.197Z,27.2
2018-03-24T07:51:53.921Z,27.1
2018-03-24T07:52:43.457Z,27
2018-03-24T07:53:34.282Z,26.9
2018-03-24T07:54:24.058Z,26.8
2018-03-24T07:55:14.124Z,26.8
2018-03-24T07:56:04.219Z,26.7
2018-03-24T07:56:53.959Z,26.6
2018-03-24T07:57:43.757Z,26.6
2018-03-24T07:58:33.768Z,26.6
2018-03-24T07:59:24.706Z,26.4
2018-03-24T08:00:14.448Z,26.4
2018-03-24T08:01:04.856Z,26.3
2018-03-24T08:01:54.578Z,26.3
2018-03-24T08:02:44.634Z,26.3
2018-03-24T08:03:34.694Z,26.2
2018-03-24T08:04:25.170Z,26.1
2018-03-24T08:05:14.629Z,26.1
2018-03-24T08:06:04.563Z,26
2018-03-24T08:06:54.663Z,26
2018-03-24T08:07:45.101Z,25.9
2018-03-24T08:08:34.529Z,25.9
2018-03-24T08:09:24.879Z,25.9
2018-03-24T08:10:14.429Z,25.8
2018-03-24T08:11:04.996Z,25.8
2018-03-24T08:11:55.333Z,25.7
2018-03-24T08:12:45.033Z,25.6
2018-03-24T08:13:35.116Z,25.6
2018-03-24T08:14:25.141Z,25.5
2018-03-24T08:15:15.752Z,25.4
2018-03-24T08:16:05.258Z,25.4
2018-03-24T08:16:54.273Z,25.3
2018-03-24T08:17:44.363Z,25.3
2018-03-24T08:18:34.801Z,25.2
2018-03-24T08:19:24.441Z,25.2
2018-03-24T08:20:14.505Z,25.1
2018-03-24T08:21:04.380Z,25.1
2018-03-24T08:21:55.126Z,25
2018-03-24T08:22:44.383Z,24.9
2018-03-24T08:23:35.018Z,24.9
2018-03-24T08:24:25.241Z,24.9
2018-03-24T08:25:15.374Z,24.8
2018-03-24T08:26:05.232Z,24.8
2018-03-24T08:26:55.218Z,24.7
2018-03-24T08:27:45.098Z,24.7
2018-03-24T08:28:35.672Z,24.6
2018-03-24T08:29:24.515Z,24.6
2018-03-24T08:30:14.995Z,24.6
2018-03-24T08:31:05.537Z,24.5
2018-03-24T08:31:54.963Z,24.4
2018-03-24T08:32:45.289Z,24.4
2018-03-24T08:33:35.805Z,24.4
2018-03-24T08:34:25.810Z,24.3
2018-03-24T08:35:15.320Z,24.3
2018-03-24T08:36:05.191Z,24.3
2018-03-24T08:36:55.341Z,24.2
2018-03-24T08:37:45.442Z,24.1
2018-03-24T08:38:34.670Z,24.1
2018-03-24T08:39:25.407Z,24.1
2018-03-24T08:40:15.405Z,24
2018-03-24T08:41:05.660Z,24
2018-03-24T08:41:55.759Z,23.9
2018-03-24T08:42:46.341Z,23.9
2018-03-24T08:43:36.699Z,23.9
2018-03-24T08:44:26.056Z,23.9
2018-03-24T08:45:16.310Z,23.8
2018-03-24T08:46:05.569Z,23.8
2018-03-24T08:46:56.113Z,23.8
2018-03-24T08:47:46.416Z,23.8
2018-03-24T08:48:35.949Z,23.7
2018-03-24T08:49:26.587Z,23.6
2018-03-24T08:50:16.771Z,23.6
2018-03-24T08:51:06.613Z,23.6
2018-03-24T08:51:56.844Z,23.6
2018-03-24T08:52:46.221Z,23.5
2018-03-24T08:53:37.633Z,23.5
2018-03-24T08:54:26.694Z,23.5
2018-03-24T08:55:16.978Z,23.4
2018-03-24T08:56:06.207Z,23.4
2018-03-24T08:56:57.575Z,23.4
2018-03-24T08:57:47.080Z,23.4
2018-03-24T08:58:37.095Z,23.3
2018-03-24T08:59:27.286Z,23.3
2018-03-24T09:00:16.735Z,23.3
2018-03-24T09:01:07.781Z,23.2
2018-03-24T09:01:57.028Z,23.1
2018-03-24T09:02:47.458Z,23.1
2018-03-24T09:03:37.226Z,23.1
2018-03-24T09:04:27.207Z,23.1
2018-03-24T09:05:17.028Z,23.1
2018-03-24T09:06:08.502Z,23.1
2018-03-24T09:06:58.041Z,23
2018-03-24T09:07:47.360Z,23
2018-03-24T09:08:37.953Z,22.9
2018-03-24T09:09:28.159Z,22.9
2018-03-24T09:10:18.172Z,22.9
2018-03-24T09:11:08.121Z,22.9
2018-03-24T09:11:57.988Z,22.9
2018-03-24T09:12:48.625Z,22.8
2018-03-24T09:13:38.302Z,22.8
2018-03-24T09:14:27.607Z,22.7
2018-03-24T09:15:19.026Z,22.6
2018-03-24T09:16:08.369Z,22.6
2018-03-24T09:16:58.725Z,22.4
2018-03-24T09:17:48.987Z,22.4
2018-03-24T09:18:39.807Z,22.4
2018-03-24T09:19:27.740Z,22.4
2018-03-24T09:20:19.670Z,22.4
2018-03-24T09:21:08.843Z,22.5
2018-03-24T09:21:58.113Z,22.5
2018-03-24T09:22:48.854Z,22.5
2018-03-24T09:23:38.401Z,22.4
2018-03-24T09:24:28.005Z,22.4
2018-03-24T09:25:17.979Z,22.4
2018-03-24T09:26:08.911Z,22.4
2018-03-24T09:26:59.222Z,22.4
2018-03-24T09:27:49.688Z,22.4
2018-03-24T09:28:39.376Z,22.4
2018-03-24T09:29:30.546Z,22.4
2018-03-24T09:30:20.326Z,22.4
2018-03-24T09:31:09.228Z,22.4
2018-03-24T09:31:58.863Z,22.4
2018-03-24T09:32:49.884Z,22.4
2018-03-24T09:33:38.114Z,22.4
2018-03-24T09:34:29.766Z,22.4
2018-03-24T09:35:20.420Z,22.4
2018-03-24T09:36:09.640Z,22.4
2018-03-24T09:36:59.422Z,22.4
2018-03-24T09:37:49.266Z,22.4
2018-03-24T09:38:40.401Z,22.4
2018-03-24T09:39:30.019Z,22.4
2018-03-24T09:40:20.121Z,22.4
2018-03-24T09:41:10.416Z,22.4
2018-03-24T09:41:59.761Z,22.4
2018-03-24T09:42:50.622Z,22.4
2018-03-24T09:43:40.367Z,22.3
2018-03-24T09:44:29.431Z,22.3
2018-03-24T09:45:20.384Z,22.3
2018-03-24T09:46:10.026Z,22.3
2018-03-24T09:47:00.284Z,22.3
2018-03-24T09:47:50.740Z,22.3
2018-03-24T09:48:39.398Z,22.3
2018-03-24T17:51:52.193Z,28.3
2018-03-24T17:52:42.723Z,28.3
2018-03-24T17:53:32.606Z,28.3
2018-03-24T17:54:22.368Z,28.3
2018-03-24T17:55:13.060Z,28.3
2018-03-24T17:56:01.880Z,28.3
2018-03-24T17:56:53.072Z,28.4
2018-03-24T17:57:42.843Z,28.4
2018-03-24T17:58:32.659Z,28.4
2018-03-24T17:59:23.273Z,28.4
2018-03-24T18:00:13.621Z,28.4
2018-03-24T18:01:02.690Z,28.4
2018-03-24T18:01:52.779Z,28.5
2018-03-24T18:02:42.734Z,28.4
2018-03-24T18:03:32.810Z,28.5
2018-03-24T18:04:23.777Z,28.5
2018-03-24T18:05:13.051Z,28.5
2018-03-24T18:06:03.615Z,28.5
2018-03-24T18:06:54.125Z,28.5
2018-03-24T18:07:43.852Z,28.5
2018-03-24T18:08:33.467Z,28.6
2018-03-24T18:09:24.396Z,28.6
2018-03-24T18:10:14.852Z,28.6
2018-03-24T18:11:04.256Z,28.6
2018-03-24T18:11:54.852Z,28.6
2018-03-24T18:12:44.897Z,28.6
2018-03-24T18:13:34.244Z,28.7
2018-03-24T18:14:24.274Z,28.7
2018-03-24T18:15:14.583Z,28.7
2018-03-24T18:16:05.154Z,28.7
2018-03-24T18:16:55.261Z,28.7
2018-03-24T18:17:45.016Z,28.8
2018-03-24T18:18:35.118Z,28.8
2018-03-24T18:19:25.419Z,28.8
2018-03-24T18:20:15.226Z,28.8
2018-03-24T18:21:04.712Z,28.8
2018-03-24T18:21:55.358Z,28.8
2018-03-24T18:22:45.643Z,28.8
2018-03-24T18:23:35.442Z,28.8
2018-03-24T18:24:25.278Z,28.8
2018-03-24T18:25:15.553Z,28.8
2018-03-24T18:26:05.390Z,28.9
2018-03-24T18:26:56.157Z,28.9
2018-03-24T18:27:45.981Z,28.9
2018-03-24T18:28:34.913Z,28.9
2018-03-24T18:29:24.461Z,28.9
2018-03-24T18:30:15.303Z,28.9
2018-03-24T18:31:05.946Z,28.9
2018-03-24T18:31:55.999Z,28.9
2018-03-24T18:32:46.047Z,29
2018-03-24T18:33:35.888Z,29
2018-03-24T18:34:26.191Z,29
2018-03-24T18:35:16.699Z,29.1
2018-03-24T18:36:04.962Z,29
2018-03-24T18:36:54.126Z,29.1
2018-03-24T18:37:44.944Z,29.1
2018-03-24T18:38:35.925Z,29.1
2018-03-24T18:39:26.140Z,29.1
2018-03-24T18:40:14.762Z,29.1
2018-03-24T18:41:05.302Z,29.1
2018-03-24T18:41:54.483Z,29.1
2018-03-24T18:42:45.672Z,29.2
2018-03-24T18:43:35.770Z,29.2
2018-03-24T18:44:27.174Z,29.2
2018-03-24T18:45:17.126Z,29.2
2018-03-24T18:46:07.162Z,29.3
2018-03-24T18:46:57.467Z,29.3
2018-03-24T18:47:47.607Z,29.3
2018-03-24T18:48:37.177Z,29.3
2018-03-24T18:49:27.231Z,29.3
2018-03-24T18:50:17.739Z,29.3
2018-03-24T18:51:08.024Z,29.3
2018-03-24T18:51:57.576Z,29.3
2018-03-24T18:52:47.951Z,29.4
2018-03-24T18:53:37.651Z,29.4
2018-03-24T18:54:27.594Z,29.4
2018-03-24T18:55:18.048Z,29.4
2018-03-24T18:56:08.383Z,29.4
2018-03-24T18:56:58.453Z,29.4
2018-03-24T18:57:48.481Z,29.4
2018-03-24T18:58:38.360Z,29.4
2018-03-24T18:59:28.042Z,29.4
2018-03-24T19:00:18.412Z,29.5
2018-03-24T19:01:08.229Z,29.5
2018-03-24T19:01:58.230Z,29.5
2018-03-24T19:02:48.278Z,29.5
2018-03-24T19:03:38.063Z,29.5
2018-03-24T19:04:29.003Z,29.5
2018-03-24T19:05:18.991Z,29.5
2018-03-24T19:06:09.083Z,29.5
2018-03-24T19:06:59.095Z,29.5
2018-03-24T19:07:48.967Z,29.6
2018-03-24T19:08:38.670Z,29.6
2018-03-24T19:09:28.695Z,29.6
2018-03-24T19:10:19.049Z,29.6
2018-03-24T19:11:09.156Z,29.6
2018-03-24T19:11:59.513Z,29.6
2018-03-24T19:12:49.545Z,29.6
2018-03-24T19:13:39.173Z,29.6
2018-03-24T19:14:29.420Z,29.6
2018-03-24T19:15:19.680Z,29.6